Terminal Aerodrome Forecast
Issued by NWS Sioux Falls, SD

Home | Current Version | Previous Version | Graphics & Text | Print | Product List | Glossary Off
Versions: 1 2 3 4 5 6 7 8 9 10 11 12 13 14 15 16 17 18 19 20 21 22 23 24 25 26

000
FTUS43 KFSD 201700 RRA
TAFSUX
TAF
KSUX 201743Z 2018/2118 17013KT P6SM SHRA BKN080
      TEMPO 2018/2020 5SM TSRA BKN045CB
     FM202100 17013G18KT P6SM SCT100 BKN200
     FM210100 13010KT P6SM BKN100
     FM211200 18009KT P6SM SCT120 BKN200=

USA.gov is the U.S. government's official web portal to all federal, state and local government web resources and services.